sensor_id;sensor_type;location;lat;lon;timestamp;pressure;altitude;pressure_sealevel;temperature;humidity
19827;BME280;10074;52.018;4.726;2023-02-17T00:02:47;46363.63;;;-144.79;100.00
19827;BME280;10074;52.018;4.726;2023-02-17T00:07:50;46343.56;;;-144.79;100.00
19827;BME280;10074;52.018;4.726;2023-02-17T00:12:50;46353.59;;;-144.79;100.00
19827;BME280;10074;52.018;4.726;2023-02-17T00:17:50;46357.59;;;-144.79;100.00
19827;BME280;10074;52.018;4.726;2023-02-17T00:22:51;46357.59;;;-144.79;100.00
19827;BME280;10074;52.018;4.726;2023-02-17T00:27:51;46357.59;;;-144.79;100.00
19827;BME280;10074;52.018;4.726;2023-02-17T00:32:51;46355.59;;;-144.79;100.00
19827;BME280;10074;52.018;4.726;2023-02-17T00:37:52;46357.59;;;-144.79;100.00
19827;BME280;10074;52.018;4.726;2023-02-17T00:42:52;46361.63;;;-144.79;100.00
19827;BME280;10074;52.018;4.726;2023-02-17T00:47:54;46355.59;;;-144.79;100.00
19827;BME280;10074;52.018;4.726;2023-02-17T00:52:55;46363.63;;;-144.79;100.00
19827;BME280;10074;52.018;4.726;2023-02-17T00:57:55;46371.63;;;-144.79;100.00
19827;BME280;10074;52.018;4.726;2023-02-17T01:02:55;46363.63;;;-144.79;100.00
19827;BME280;10074;52.018;4.726;2023-02-17T01:07:56;46367.63;;;-144.79;100.00
19827;BME280;10074;52.018;4.726;2023-02-17T01:12:56;46363.63;;;-144.79;100.00
19827;BME280;10074;52.018;4.726;2023-02-17T01:17:57;46363.63;;;-144.79;100.00
19827;BME280;10074;52.018;4.726;2023-02-17T01:22:57;46363.63;;;-144.79;100.00
19827;BME280;10074;52.018;4.726;2023-02-17T01:27:58;46371.63;;;-144.79;100.00
19827;BME280;10074;52.018;4.726;2023-02-17T01:32:58;46375.66;;;-144.79;100.00
19827;BME280;10074;52.018;4.726;2023-02-17T01:37:59;46371.63;;;-144.79;100.00
19827;BME280;10074;52.018;4.726;2023-02-17T01:42:59;46381.66;;;-144.79;100.00
19827;BME280;10074;52.018;4.726;2023-02-17T01:53:05;46377.66;;;-144.79;100.00
19827;BME280;10074;52.018;4.726;2023-02-17T01:58:08;46377.66;;;-144.79;100.00
19827;BME280;10074;52.018;4.726;2023-02-17T02:03:12;46379.66;;;-144.79;100.00
19827;BME280;10074;52.018;4.726;2023-02-17T02:08:13;46381.66;;;-144.79;100.00
19827;BME280;10074;52.018;4.726;2023-02-17T02:13:14;46381.66;;;-144.79;100.00
19827;BME280;10074;52.018;4.726;2023-02-17T02:29:45;46385.69;;;-144.79;100.00
19827;BME280;10074;52.018;4.726;2023-02-17T02:40:44;46375.66;;;-144.79;100.00
19827;BME280;10074;52.018;4.726;2023-02-17T02:45:45;46383.66;;;-144.79;100.00
19827;BME280;10074;52.018;4.726;2023-02-17T03:07:08;46385.69;;;-144.79;100.00
19827;BME280;10074;52.018;4.726;2023-02-17T03:12:10;46379.66;;;-144.79;100.00
19827;BME280;10074;52.018;4.726;2023-02-17T03:17:10;46391.69;;;-144.79;100.00
19827;BME280;10074;52.018;4.726;2023-02-17T03:22:22;46385.69;;;-144.79;100.00
19827;BME280;10074;52.018;4.726;2023-02-17T03:27:24;46385.69;;;-144.79;100.00
19827;BME280;10074;52.018;4.726;2023-02-17T03:32:24;46387.69;;;-144.79;100.00
19827;BME280;10074;52.018;4.726;2023-02-17T03:37:35;46389.69;;;-144.79;100.00
19827;BME280;10074;52.018;4.726;2023-02-17T03:42:36;46383.66;;;-144.79;100.00
19827;BME280;10074;52.018;4.726;2023-02-17T03:47:36;46387.69;;;-144.79;100.00
19827;BME280;10074;52.018;4.726;2023-02-17T03:52:37;46391.69;;;-144.79;100.00
19827;BME280;10074;52.018;4.726;2023-02-17T03:57:37;46393.69;;;-144.79;100.00
19827;BME280;10074;52.018;4.726;2023-02-17T04:02:37;46395.69;;;-144.79;100.00
19827;BME280;10074;52.018;4.726;2023-02-17T04:07:38;46391.69;;;-144.79;100.00
19827;BME280;10074;52.018;4.726;2023-02-17T04:12:38;46393.69;;;-144.79;100.00
19827;BME280;10074;52.018;4.726;2023-02-17T04:17:39;46391.69;;;-144.79;100.00
19827;BME280;10074;52.018;4.726;2023-02-17T04:22:39;46393.69;;;-144.79;100.00
19827;BME280;10074;52.018;4.726;2023-02-17T04:27:39;46393.69;;;-144.79;100.00
19827;BME280;10074;52.018;4.726;2023-02-17T04:32:40;46389.69;;;-144.79;100.00
19827;BME280;10074;52.018;4.726;2023-02-17T04:37:40;46395.69;;;-144.79;100.00
19827;BME280;10074;52.018;4.726;2023-02-17T04:42:41;46391.69;;;-144.79;100.00
19827;BME280;10074;52.018;4.726;2023-02-17T04:47:41;46393.69;;;-144.79;100.00
19827;BME280;10074;52.018;4.726;2023-02-17T04:52:42;46395.69;;;-144.79;100.00
19827;BME280;10074;52.018;4.726;2023-02-17T04:57:42;46401.72;;;-144.79;100.00
19827;BME280;10074;52.018;4.726;2023-02-17T05:02:42;46399.72;;;-144.79;100.00
19827;BME280;10074;52.018;4.726;2023-02-17T05:07:44;46401.72;;;-144.79;100.00
19827;BME280;10074;52.018;4.726;2023-02-17T05:12:45;46403.72;;;-144.79;100.00
19827;BME280;10074;52.018;4.726;2023-02-17T05:17:45;46399.72;;;-144.79;100.00
19827;BME280;10074;52.018;4.726;2023-02-17T05:22:46;46399.72;;;-144.79;100.00
19827;BME280;10074;52.018;4.726;2023-02-17T05:27:46;46399.72;;;-144.79;100.00
19827;BME280;10074;52.018;4.726;2023-02-17T05:32:46;46395.69;;;-144.79;100.00
19827;BME280;10074;52.018;4.726;2023-02-17T05:37:47;46405.72;;;-144.79;100.00
19827;BME280;10074;52.018;4.726;2023-02-17T05:42:47;46407.72;;;-144.79;100.00
19827;BME280;10074;52.018;4.726;2023-02-17T05:47:48;46407.72;;;-144.79;100.00
19827;BME280;10074;52.018;4.726;2023-02-17T05:52:48;46401.72;;;-144.79;100.00
19827;BME280;10074;52.018;4.726;2023-02-17T05:57:48;46411.75;;;-144.79;100.00
19827;BME280;10074;52.018;4.726;2023-02-17T06:02:49;46407.72;;;-144.79;100.00
19827;BME280;10074;52.018;4.726;2023-02-17T06:07:49;46399.72;;;-144.79;100.00
19827;BME280;10074;52.018;4.726;2023-02-17T06:12:49;46409.75;;;-144.79;100.00
19827;BME280;10074;52.018;4.726;2023-02-17T06:17:51;46411.75;;;-144.79;100.00
19827;BME280;10074;52.018;4.726;2023-02-17T06:22:51;46411.75;;;-144.79;100.00
19827;BME280;10074;52.018;4.726;2023-02-17T06:27:52;46411.75;;;-144.79;100.00
19827;BME280;10074;52.018;4.726;2023-02-17T06:32:52;46415.75;;;-144.79;100.00
19827;BME280;10074;52.018;4.726;2023-02-17T06:37:53;46411.75;;;-144.79;100.00
19827;BME280;10074;52.018;4.726;2023-02-17T06:42:53;46413.75;;;-144.79;100.00
19827;BME280;10074;52.018;4.726;2023-02-17T06:47:53;46413.75;;;-144.79;100.00
19827;BME280;10074;52.018;4.726;2023-02-17T06:52:54;46413.75;;;-144.79;100.00
19827;BME280;10074;52.018;4.726;2023-02-17T06:57:54;46387.69;;;-144.79;100.00
19827;BME280;10074;52.018;4.726;2023-02-17T07:02:55;46355.59;;;-144.79;100.00
19827;BME280;10074;52.018;4.726;2023-02-17T07:07:58;46315.50;;;-144.79;100.00
19827;BME280;10074;52.018;4.726;2023-02-17T07:12:59;46303.47;;;-144.79;100.00
19827;BME280;10074;52.018;4.726;2023-02-17T07:18:00;46285.41;;;-144.79;100.00
19827;BME280;10074;52.018;4.726;2023-02-17T07:23:01;46279.41;;;-144.79;100.00
19827;BME280;10074;52.018;4.726;2023-02-17T07:28:01;46279.41;;;-144.79;100.00
19827;BME280;10074;52.018;4.726;2023-02-17T07:33:02;46275.41;;;-144.79;100.00
19827;BME280;10074;52.018;4.726;2023-02-17T07:38:02;46277.41;;;-144.79;100.00
19827;BME280;10074;52.018;4.726;2023-02-17T07:43:03;46279.41;;;-144.79;100.00
19827;BME280;10074;52.018;4.726;2023-02-17T07:48:03;46287.44;;;-144.79;100.00
19827;BME280;10074;52.018;4.726;2023-02-17T07:53:04;46295.44;;;-144.79;100.00
19827;BME280;10074;52.018;4.726;2023-02-17T07:58:04;46307.47;;;-144.79;100.00
19827;BME280;10074;52.018;4.726;2023-02-17T08:03:04;46319.50;;;-144.79;100.00
19827;BME280;10074;52.018;4.726;2023-02-17T08:08:05;46335.53;;;-144.79;100.00
19827;BME280;10074;52.018;4.726;2023-02-17T08:13:25;46355.59;;;-144.79;100.00
19827;BME280;10074;52.018;4.726;2023-02-17T08:18:26;46375.66;;;-144.79;100.00
19827;BME280;10074;52.018;4.726;2023-02-17T08:23:26;46383.66;;;-144.79;100.00
19827;BME280;10074;52.018;4.726;2023-02-17T08:28:27;46391.69;;;-144.79;100.00
19827;BME280;10074;52.018;4.726;2023-02-17T08:33:27;46407.72;;;-144.79;100.00
19827;BME280;10074;52.018;4.726;2023-02-17T08:38:28;46407.72;;;-144.79;100.00
19827;BME280;10074;52.018;4.726;2023-02-17T08:43:28;46415.75;;;-144.79;100.00
19827;BME280;10074;52.018;4.726;2023-02-17T08:48:29;46417.75;;;-144.79;100.00
19827;BME280;10074;52.018;4.726;2023-02-17T08:53:29;46415.75;;;-144.79;100.00
19827;BME280;10074;52.018;4.726;2023-02-17T08:58:30;46415.75;;;-144.79;100.00
19827;BME280;10074;52.018;4.726;2023-02-17T09:03:35;46409.75;;;-144.79;100.00
19827;BME280;10074;52.018;4.726;2023-02-17T09:08:36;46407.72;;;-144.79;100.00
19827;BME280;10074;52.018;4.726;2023-02-17T09:13:38;46413.75;;;-144.79;100.00
19827;BME280;10074;52.018;4.726;2023-02-17T09:18:38;46421.78;;;-144.79;100.00
19827;BME280;10074;52.018;4.726;2023-02-17T09:23:39;46423.78;;;-144.79;100.00
19827;BME280;10074;52.018;4.726;2023-02-17T09:28:40;46421.78;;;-144.79;100.00
19827;BME280;10074;52.018;4.726;2023-02-17T09:33:41;46423.78;;;-144.79;100.00
19827;BME280;10074;52.018;4.726;2023-02-17T09:38:42;46423.78;;;-144.79;100.00
19827;BME280;10074;52.018;4.726;2023-02-17T09:43:43;46417.75;;;-144.79;100.00
19827;BME280;10074;52.018;4.726;2023-02-17T09:48:47;46421.78;;;-144.79;100.00
19827;BME280;10074;52.018;4.726;2023-02-17T10:04:37;46429.78;;;-144.79;100.00
19827;BME280;10074;52.018;4.726;2023-02-17T10:15:09;46427.78;;;-144.79;100.00
19827;BME280;10074;52.018;4.726;2023-02-17T10:25:38;46431.78;;;-144.79;100.00
19827;BME280;10074;52.018;4.726;2023-02-17T10:30:50;46435.81;;;-144.79;100.00
19827;BME280;10074;52.018;4.726;2023-02-17T10:35:59;46431.78;;;-144.79;100.00
19827;BME280;10074;52.018;4.726;2023-02-17T10:41:05;46435.81;;;-144.79;100.00
19827;BME280;10074;52.018;4.726;2023-02-17T10:46:11;46427.78;;;-144.79;100.00
19827;BME280;10074;52.018;4.726;2023-02-17T10:51:17;46431.78;;;-144.79;100.00
19827;BME280;10074;52.018;4.726;2023-02-17T10:56:31;46439.81;;;-144.79;100.00
19827;BME280;10074;52.018;4.726;2023-02-17T11:01:35;46439.81;;;-144.79;100.00
19827;BME280;10074;52.018;4.726;2023-02-17T11:06:40;46435.81;;;-144.79;100.00
19827;BME280;10074;52.018;4.726;2023-02-17T11:11:52;46441.81;;;-144.79;100.00
19827;BME280;10074;52.018;4.726;2023-02-17T11:16:59;46441.81;;;-144.79;100.00
19827;BME280;10074;52.018;4.726;2023-02-17T11:22:05;46445.84;;;-144.79;100.00
19827;BME280;10074;52.018;4.726;2023-02-17T11:27:10;46443.81;;;-144.79;100.00
19827;BME280;10074;52.018;4.726;2023-02-17T11:32:11;46441.81;;;-144.79;100.00
19827;BME280;10074;52.018;4.726;2023-02-17T11:42:30;46445.84;;;-144.79;100.00
19827;BME280;10074;52.018;4.726;2023-02-17T11:47:43;46443.81;;;-144.79;100.00
19827;BME280;10074;52.018;4.726;2023-02-17T12:09:04;46447.84;;;-144.79;100.00
19827;BME280;10074;52.018;4.726;2023-02-17T12:14:39;46445.84;;;-144.79;100.00
19827;BME280;10074;52.018;4.726;2023-02-17T12:20:06;46449.84;;;-144.79;100.00
19827;BME280;10074;52.018;4.726;2023-02-17T12:25:24;46449.84;;;-144.79;100.00
19827;BME280;10074;52.018;4.726;2023-02-17T12:40:50;46455.84;;;-144.79;100.00
19827;BME280;10074;52.018;4.726;2023-02-17T12:45:53;46451.84;;;-144.79;100.00
19827;BME280;10074;52.018;4.726;2023-02-17T12:51:09;46455.84;;;-144.79;100.00
19827;BME280;10074;52.018;4.726;2023-02-17T13:01:58;46453.84;;;-144.79;100.00
19827;BME280;10074;52.018;4.726;2023-02-17T13:07:09;46449.84;;;-144.79;100.00
19827;BME280;10074;52.018;4.726;2023-02-17T13:17:30;46449.84;;;-144.79;100.00
19827;BME280;10074;52.018;4.726;2023-02-17T13:22:30;46447.84;;;-144.79;100.00
19827;BME280;10074;52.018;4.726;2023-02-17T13:27:33;46449.84;;;-144.79;100.00
19827;BME280;10074;52.018;4.726;2023-02-17T13:32:35;46445.84;;;-144.79;100.00
19827;BME280;10074;52.018;4.726;2023-02-17T13:42:40;46451.84;;;-144.79;100.00
19827;BME280;10074;52.018;4.726;2023-02-17T13:47:42;46453.84;;;-144.79;100.00
19827;BME280;10074;52.018;4.726;2023-02-17T13:52:42;46453.84;;;-144.79;100.00
19827;BME280;10074;52.018;4.726;2023-02-17T13:57:43;46449.84;;;-144.79;100.00
19827;BME280;10074;52.018;4.726;2023-02-17T14:02:46;46449.84;;;-144.79;100.00
19827;BME280;10074;52.018;4.726;2023-02-17T14:07:48;46449.84;;;-144.79;100.00
19827;BME280;10074;52.018;4.726;2023-02-17T14:12:49;46455.84;;;-144.79;100.00
19827;BME280;10074;52.018;4.726;2023-02-17T14:17:51;46453.84;;;-144.79;100.00
19827;BME280;10074;52.018;4.726;2023-02-17T14:23:06;46447.84;;;-144.79;100.00
19827;BME280;10074;52.018;4.726;2023-02-17T14:28:25;46447.84;;;-144.79;100.00
19827;BME280;10074;52.018;4.726;2023-02-17T14:33:26;46445.84;;;-144.79;100.00
19827;BME280;10074;52.018;4.726;2023-02-17T14:43:31;46447.84;;;-144.79;100.00
19827;BME280;10074;52.018;4.726;2023-02-17T14:48:31;46455.84;;;-144.79;100.00
19827;BME280;10074;52.018;4.726;2023-02-17T14:53:33;46455.84;;;-144.79;100.00
19827;BME280;10074;52.018;4.726;2023-02-17T14:58:36;46451.84;;;-144.79;100.00
19827;BME280;10074;52.018;4.726;2023-02-17T15:03:37;46455.84;;;-144.79;100.00
19827;BME280;10074;52.018;4.726;2023-02-17T15:08:39;46451.84;;;-144.79;100.00
19827;BME280;10074;52.018;4.726;2023-02-17T15:13:40;46455.84;;;-144.79;100.00
19827;BME280;10074;52.018;4.726;2023-02-17T15:18:41;46451.84;;;-144.79;100.00
19827;BME280;10074;52.018;4.726;2023-02-17T15:23:42;46453.84;;;-144.79;100.00
19827;BME280;10074;52.018;4.726;2023-02-17T15:28:44;46451.84;;;-144.79;100.00
19827;BME280;10074;52.018;4.726;2023-02-17T15:33:50;46451.84;;;-144.79;100.00
19827;BME280;10074;52.018;4.726;2023-02-17T15:38:53;46445.84;;;-144.79;100.00
19827;BME280;10074;52.018;4.726;2023-02-17T15:43:54;46451.84;;;-144.79;100.00
19827;BME280;10074;52.018;4.726;2023-02-17T15:48:55;46453.84;;;-144.79;100.00
19827;BME280;10074;52.018;4.726;2023-02-17T15:53:56;46457.88;;;-144.79;100.00
19827;BME280;10074;52.018;4.726;2023-02-17T15:59:07;46453.84;;;-144.79;100.00
19827;BME280;10074;52.018;4.726;2023-02-17T16:04:12;46457.88;;;-144.79;100.00
19827;BME280;10074;52.018;4.726;2023-02-17T16:09:14;46455.84;;;-144.79;100.00
19827;BME280;10074;52.018;4.726;2023-02-17T16:14:22;46455.84;;;-144.79;100.00
19827;BME280;10074;52.018;4.726;2023-02-17T16:19:24;46457.88;;;-144.79;100.00
19827;BME280;10074;52.018;4.726;2023-02-17T16:24:24;46467.88;;;-144.79;100.00
19827;BME280;10074;52.018;4.726;2023-02-17T16:29:25;46467.88;;;-144.79;100.00
19827;BME280;10074;52.018;4.726;2023-02-17T16:34:25;46467.88;;;-144.79;100.00
19827;BME280;10074;52.018;4.726;2023-02-17T16:39:28;46469.88;;;-144.79;100.00
19827;BME280;10074;52.018;4.726;2023-02-17T16:44:28;46467.88;;;-144.79;100.00
19827;BME280;10074;52.018;4.726;2023-02-17T16:49:31;46467.88;;;-144.79;100.00
19827;BME280;10074;52.018;4.726;2023-02-17T16:54:32;46467.88;;;-144.79;100.00
19827;BME280;10074;52.018;4.726;2023-02-17T16:59:33;46463.88;;;-144.79;100.00
19827;BME280;10074;52.018;4.726;2023-02-17T17:04:33;46463.88;;;-144.79;100.00
19827;BME280;10074;52.018;4.726;2023-02-17T17:09:34;46467.88;;;-144.79;100.00
19827;BME280;10074;52.018;4.726;2023-02-17T17:14:34;46463.88;;;-144.79;100.00
19827;BME280;10074;52.018;4.726;2023-02-17T17:19:34;46467.88;;;-144.79;100.00
19827;BME280;10074;52.018;4.726;2023-02-17T17:24:35;46467.88;;;-144.79;100.00
19827;BME280;10074;52.018;4.726;2023-02-17T17:29:35;46463.88;;;-144.79;100.00
19827;BME280;10074;52.018;4.726;2023-02-17T17:34:35;46465.88;;;-144.79;100.00
19827;BME280;10074;52.018;4.726;2023-02-17T17:39:36;46467.88;;;-144.79;100.00
19827;BME280;10074;52.018;4.726;2023-02-17T17:44:36;46467.88;;;-144.79;100.00
19827;BME280;10074;52.018;4.726;2023-02-17T17:49:37;46467.88;;;-144.79;100.00
19827;BME280;10074;52.018;4.726;2023-02-17T17:54:37;46465.88;;;-144.79;100.00
19827;BME280;10074;52.018;4.726;2023-02-17T17:59:38;46463.88;;;-144.79;100.00
19827;BME280;10074;52.018;4.726;2023-02-17T18:04:38;46469.88;;;-144.79;100.00
19827;BME280;10074;52.018;4.726;2023-02-17T18:09:38;46467.88;;;-144.79;100.00
19827;BME280;10074;52.018;4.726;2023-02-17T18:14:40;46469.88;;;-144.79;100.00
19827;BME280;10074;52.018;4.726;2023-02-17T18:19:41;46467.88;;;-144.79;100.00
19827;BME280;10074;52.018;4.726;2023-02-17T18:24:41;46465.88;;;-144.79;100.00
19827;BME280;10074;52.018;4.726;2023-02-17T18:29:43;46465.88;;;-144.79;100.00
19827;BME280;10074;52.018;4.726;2023-02-17T18:34:43;46471.91;;;-144.79;100.00
19827;BME280;10074;52.018;4.726;2023-02-17T18:39:44;46467.88;;;-144.79;100.00
19827;BME280;10074;52.018;4.726;2023-02-17T18:44:44;46467.88;;;-144.79;100.00
19827;BME280;10074;52.018;4.726;2023-02-17T18:49:45;46467.88;;;-144.79;100.00
19827;BME280;10074;52.018;4.726;2023-02-17T18:54:45;46467.88;;;-144.79;100.00
19827;BME280;10074;52.018;4.726;2023-02-17T18:59:45;46467.88;;;-144.79;100.00
19827;BME280;10074;52.018;4.726;2023-02-17T19:04:46;46465.88;;;-144.79;100.00
19827;BME280;10074;52.018;4.726;2023-02-17T19:09:47;46467.88;;;-144.79;100.00
19827;BME280;10074;52.018;4.726;2023-02-17T19:14:53;46467.88;;;-144.79;100.00
19827;BME280;10074;52.018;4.726;2023-02-17T19:19:55;46467.88;;;-144.79;100.00
19827;BME280;10074;52.018;4.726;2023-02-17T19:24:55;46463.88;;;-144.79;100.00
19827;BME280;10074;52.018;4.726;2023-02-17T19:29:56;46469.88;;;-144.79;100.00
19827;BME280;10074;52.018;4.726;2023-02-17T19:34:56;46463.88;;;-144.79;100.00
19827;BME280;10074;52.018;4.726;2023-02-17T19:39:56;46467.88;;;-144.79;100.00
19827;BME280;10074;52.018;4.726;2023-02-17T19:44:57;46463.88;;;-144.79;100.00
19827;BME280;10074;52.018;4.726;2023-02-17T19:49:57;46465.88;;;-144.79;100.00
19827;BME280;10074;52.018;4.726;2023-02-17T19:54:58;46463.88;;;-144.79;100.00
19827;BME280;10074;52.018;4.726;2023-02-17T19:59:58;46465.88;;;-144.79;100.00
19827;BME280;10074;52.018;4.726;2023-02-17T20:04:59;46463.88;;;-144.79;100.00
19827;BME280;10074;52.018;4.726;2023-02-17T20:09:59;46461.88;;;-144.79;100.00
19827;BME280;10074;52.018;4.726;2023-02-17T20:15:00;46465.88;;;-144.79;100.00
19827;BME280;10074;52.018;4.726;2023-02-17T20:20:00;46467.88;;;-144.79;100.00
19827;BME280;10074;52.018;4.726;2023-02-17T20:25:01;46463.88;;;-144.79;100.00
19827;BME280;10074;52.018;4.726;2023-02-17T20:30:01;46463.88;;;-144.79;100.00
19827;BME280;10074;52.018;4.726;2023-02-17T20:35:01;46465.88;;;-144.79;100.00
19827;BME280;10074;52.018;4.726;2023-02-17T20:40:02;46465.88;;;-144.79;100.00
19827;BME280;10074;52.018;4.726;2023-02-17T20:45:03;46459.88;;;-144.79;100.00
19827;BME280;10074;52.018;4.726;2023-02-17T20:50:04;46467.88;;;-144.79;100.00
19827;BME280;10074;52.018;4.726;2023-02-17T20:55:08;46461.88;;;-144.79;100.00
19827;BME280;10074;52.018;4.726;2023-02-17T21:00:13;46463.88;;;-144.79;100.00
19827;BME280;10074;52.018;4.726;2023-02-17T21:05:14;46463.88;;;-144.79;100.00
19827;BME280;10074;52.018;4.726;2023-02-17T21:10:17;46465.88;;;-144.79;100.00
19827;BME280;10074;52.018;4.726;2023-02-17T21:15:18;46463.88;;;-144.79;100.00
19827;BME280;10074;52.018;4.726;2023-02-17T21:20:20;46463.88;;;-144.79;100.00
19827;BME280;10074;52.018;4.726;2023-02-17T21:25:21;46461.88;;;-144.79;100.00
19827;BME280;10074;52.018;4.726;2023-02-17T21:30:21;46463.88;;;-144.79;100.00
19827;BME280;10074;52.018;4.726;2023-02-17T21:35:21;46463.88;;;-144.79;100.00
19827;BME280;10074;52.018;4.726;2023-02-17T21:40:22;46461.88;;;-144.79;100.00
19827;BME280;10074;52.018;4.726;2023-02-17T21:45:23;46463.88;;;-144.79;100.00
19827;BME280;10074;52.018;4.726;2023-02-17T21:50:24;46465.88;;;-144.79;100.00
19827;BME280;10074;52.018;4.726;2023-02-17T21:55:24;46463.88;;;-144.79;100.00
19827;BME280;10074;52.018;4.726;2023-02-17T22:00:25;46457.88;;;-144.79;100.00
19827;BME280;10074;52.018;4.726;2023-02-17T22:05:30;46463.88;;;-144.79;100.00
19827;BME280;10074;52.018;4.726;2023-02-17T22:10:36;46467.88;;;-144.79;100.00
19827;BME280;10074;52.018;4.726;2023-02-17T22:15:37;46471.91;;;-144.79;100.00
19827;BME280;10074;52.018;4.726;2023-02-17T22:20:42;46471.91;;;-144.79;100.00
19827;BME280;10074;52.018;4.726;2023-02-17T22:25:43;46473.91;;;-144.79;100.00
19827;BME280;10074;52.018;4.726;2023-02-17T22:30:49;46467.88;;;-144.79;100.00
19827;BME280;10074;52.018;4.726;2023-02-17T22:36:03;46471.91;;;-144.79;100.00
19827;BME280;10074;52.018;4.726;2023-02-17T22:41:13;46469.88;;;-144.79;100.00
19827;BME280;10074;52.018;4.726;2023-02-17T22:46:15;46471.91;;;-144.79;100.00
19827;BME280;10074;52.018;4.726;2023-02-17T22:51:19;46467.88;;;-144.79;100.00
19827;BME280;10074;52.018;4.726;2023-02-17T22:56:20;46467.88;;;-144.79;100.00
19827;BME280;10074;52.018;4.726;2023-02-17T23:01:22;46465.88;;;-144.79;100.00
19827;BME280;10074;52.018;4.726;2023-02-17T23:06:26;46465.88;;;-144.79;100.00
19827;BME280;10074;52.018;4.726;2023-02-17T23:11:32;46463.88;;;-144.79;100.00
19827;BME280;10074;52.018;4.726;2023-02-17T23:17:08;46463.88;;;-144.79;100.00
19827;BME280;10074;52.018;4.726;2023-02-17T23:22:13;46461.88;;;-144.79;100.00
19827;BME280;10074;52.018;4.726;2023-02-17T23:27:15;46467.88;;;-144.79;100.00
19827;BME280;10074;52.018;4.726;2023-02-17T23:32:15;46467.88;;;-144.79;100.00
19827;BME280;10074;52.018;4.726;2023-02-17T23:37:15;46465.88;;;-144.79;100.00
19827;BME280;10074;52.018;4.726;2023-02-17T23:42:16;46467.88;;;-144.79;100.00
19827;BME280;10074;52.018;4.726;2023-02-17T23:47:16;46463.88;;;-144.79;100.00
19827;BME280;10074;52.018;4.726;2023-02-17T23:52:16;46463.88;;;-144.79;100.00
19827;BME280;10074;52.018;4.726;2023-02-17T23:57:17;46459.88;;;-144.79;100.00
